Time;durP1;ratioP1;P1;durP2;ratioP2;P2;SDS_P1;SDS_P2;PMS_P1;PMS_P2;Temp;Humidity;BMP_temperature;BMP_pressure;BME280_temperature;BME280_humidity;BME280_pressure;Samples;Min_cycle;Max_cycle;Signal;HPM_P1;HPM_P2
2021/12/16 00:09:34;;;;;;;60.70;40.30;;;;;;;9.98;83.55;103222.16;3574896;40;19990;-64
2021/12/16 00:31:22;;;;;;;59.20;39.90;;;;;;;9.96;83.99;103226.69;3574324;40;20130;-64
2021/12/16 00:34:01;;;;;;;61.35;41.53;;;;;;;9.97;83.85;103223.97;3573933;40;20060;-64
2021/12/16 00:36:32;;;;;;;60.20;40.33;;;;;;;9.97;83.56;103223.97;3573356;40;20061;-64
2021/12/16 00:39:00;;;;;;;56.45;40.80;;;;;;;9.97;83.61;103231.16;3571582;40;20129;-64
2021/12/16 00:41:26;;;;;;;57.58;40.78;;;;;;;9.97;84.07;103226.66;3571142;40;20040;-64
2021/12/16 00:43:58;;;;;;;57.83;39.63;;;;;;;9.98;83.47;103224.84;3561003;40;20053;-64
2021/12/16 00:49:17;;;;;;;55.40;38.53;;;;;;;9.95;83.71;103228.47;3564816;40;20263;-64
2021/12/16 00:54:29;;;;;;;58.15;40.53;;;;;;;9.96;83.98;103234.75;3575921;40;20094;-64
2021/12/16 00:57:03;;;;;;;58.63;40.72;;;;;;;9.93;83.92;103222.28;3570842;40;20067;-64
2021/12/16 00:59:33;;;;;;;59.95;40.28;;;;;;;9.93;83.38;103222.28;3571198;40;20096;-64
2021/12/16 01:38:01;;;;;;;51.30;36.45;;;;;;;9.99;83.91;103243.63;3573240;40;20060;-64
2021/12/16 01:40:30;;;;;;;56.72;39.28;;;;;;;9.94;83.83;103244.66;3572325;40;20056;-64
2021/12/16 01:45:36;;;;;;;55.33;39.65;;;;;;;9.95;83.77;103244.59;3571576;40;20064;-64
2021/12/16 01:51:23;;;;;;;55.38;40.08;;;;;;;9.97;84.21;103266.06;3572582;40;20279;-64
2021/12/16 01:54:34;;;;;;;;;;;;;;;9.95;84.13;103260.72;3572948;40;20051;-64
2021/12/16 01:57:11;;;;;;;55.03;38.42;;;;;;;9.96;83.59;103265.19;3571268;40;20040;-64
2021/12/16 01:59:40;;;;;;;59.20;39.03;;;;;;;9.97;83.74;103266.06;3573345;40;20044;-65
2021/12/16 02:02:25;;;;;;;58.88;39.05;;;;;;;9.98;83.46;103268.72;3572546;40;20123;-65
2021/12/16 02:05:24;;;;;;;54.10;39.08;;;;;;;9.94;83.26;103260.75;3572739;40;20092;-64
2021/12/16 02:10:31;;;;;;;53.05;38.47;;;;;;;9.97;83.72;103266.97;3573011;40;20410;-64
2021/12/16 02:13:28;;;;;;;53.97;38.75;;;;;;;9.96;83.79;103270.56;3571377;40;20075;-64
2021/12/16 02:32:39;;;;;;;54.60;38.15;;;;;;;9.98;84.12;103282.16;3573578;40;20052;-64
2021/12/16 02:37:34;;;;;;;51.40;39.33;;;;;;;9.97;83.64;103285.75;3574412;40;20044;-64
2021/12/16 02:40:05;;;;;;;53.67;38.70;;;;;;;9.95;84.20;103284.91;3574632;40;20078;-64
2021/12/16 02:42:51;;;;;;;56.63;39.53;;;;;;;9.95;84.22;103290.28;3572993;40;20100;-65
2021/12/16 02:50:46;;;;;;;55.10;38.70;;;;;;;9.96;83.83;103285.81;3573806;40;20114;-63
2021/12/16 02:53:11;;;;;;;53.50;38.58;;;;;;;9.91;83.45;103279.63;3574256;40;20137;-64
2021/12/16 02:55:37;;;;;;;56.28;39.00;;;;;;;9.96;83.90;103292.06;3575026;40;20057;-65
2021/12/16 02:58:03;;;;;;;49.22;37.33;;;;;;;9.91;84.04;103285.88;3574584;40;20387;-64
2021/12/16 03:00:44;;;;;;;49.13;37.40;;;;;;;9.98;83.98;103300.09;3574055;40;20068;-64
2021/12/16 03:03:10;;;;;;;55.65;38.10;;;;;;;9.96;83.37;103292.06;3573182;40;20076;-64
2021/12/16 03:05:37;;;;;;;58.60;38.40;;;;;;;9.96;83.82;103284.00;3574339;40;20302;-64
2021/12/16 03:08:06;;;;;;;58.35;38.22;;;;;;;9.96;84.18;103281.31;3564909;40;20061;-64
2021/12/16 03:11:00;;;;;;;51.92;38.08;;;;;;;9.89;83.76;103273.41;3574775;40;20386;-64
2021/12/16 03:18:38;;;;;;;52.70;37.08;;;;;;;9.94;84.45;103283.13;3573498;40;20292;-65
2021/12/16 03:21:18;;;;;;;52.67;37.42;;;;;;;9.95;83.66;103284.91;3571094;40;20158;-64
2021/12/16 03:24:04;;;;;;;52.75;37.17;;;;;;;9.93;84.13;103286.75;3574824;40;20044;-65
2021/12/16 03:34:27;;;;;;;55.10;39.50;;;;;;;9.75;84.17;103265.63;3574635;40;20056;-64
2021/12/16 03:37:15;;;;;;;50.15;38.28;;;;;;;9.89;84.16;103293.06;3567931;40;20053;-65
2021/12/16 03:40:08;;;;;;;51.28;37.22;;;;;;;9.90;84.18;103292.19;3570672;40;20040;-65
2021/12/16 03:42:43;;;;;;;56.22;37.60;;;;;;;9.91;84.09;103295.75;3575517;40;20101;-65
2021/12/16 03:48:36;;;;;;;57.22;37.88;;;;;;;9.91;84.34;103288.56;3568215;40;20127;-65
2021/12/16 03:51:09;;;;;;;55.33;37.42;;;;;;;9.91;84.15;103290.38;3572591;40;20380;-65
2021/12/16 03:53:35;;;;;;;54.28;38.45;;;;;;;9.90;84.07;103300.25;3574035;40;20069;-65
2021/12/16 03:56:03;;;;;;;55.00;38.50;;;;;;;9.64;84.28;103251.50;3573413;40;20088;-65
2021/12/16 03:58:29;;;;;;;48.97;37.63;;;;;;;9.92;84.04;103309.13;3573916;40;20053;-65
2021/12/16 04:01:01;;;;;;;54.20;36.38;;;;;;;9.93;84.05;103313.63;3574519;40;20072;-65
2021/12/16 04:03:27;;;;;;;53.17;37.42;;;;;;;9.95;84.02;103313.56;3573984;40;20080;-66
2021/12/16 04:05:54;;;;;;;53.55;38.60;;;;;;;9.93;83.94;103313.63;3572870;40;20092;-65
2021/12/16 04:08:20;;;;;;;57.60;35.55;;;;;;;9.89;84.08;103306.50;3573575;40;20064;-65
2021/12/16 04:11:04;;;;;;;53.25;37.65;;;;;;;9.92;84.11;103306.44;3573200;40;20394;-65
2021/12/16 04:13:30;;;;;;;53.88;38.28;;;;;;;9.91;83.72;103303.81;3570093;40;20058;-65
2021/12/16 04:15:56;;;;;;;51.08;37.22;;;;;;;9.89;83.96;103301.13;3570728;40;20064;-65
2021/12/16 04:18:22;;;;;;;56.38;37.55;;;;;;;9.93;84.04;103302.88;3572985;40;20097;-64
2021/12/16 04:20:48;;;;;;;53.63;37.20;;;;;;;9.67;84.14;103264.84;3572761;40;20059;-65
2021/12/16 04:23:18;;;;;;;54.35;37.30;;;;;;;9.91;84.01;103302.00;3573880;40;20446;-64
2021/12/16 04:25:46;;;;;;;52.00;36.40;;;;;;;9.93;83.92;103308.25;3573091;40;20059;-65
2021/12/16 04:28:26;;;;;;;52.60;37.20;;;;;;;9.91;84.11;103309.19;3572321;40;20075;-65
2021/12/16 04:30:54;;;;;;;51.30;36.30;;;;;;;9.77;83.45;103296.03;3572723;40;20142;-64
2021/12/16 04:33:20;;;;;;;48.65;37.22;;;;;;;9.90;83.81;103323.53;3571314;40;20376;-65
2021/12/16 04:35:46;;;;;;;54.80;38.97;;;;;;;9.67;83.76;103272.91;3573016;40;20334;-64
2021/12/16 04:38:13;;;;;;;52.83;36.45;;;;;;;9.87;84.32;103296.72;3574062;40;20059;-65
2021/12/16 04:40:40;;;;;;;54.92;37.67;;;;;;;9.85;84.25;103307.50;3572927;40;20399;-65
2021/12/16 04:43:08;;;;;;;53.53;37.78;;;;;;;9.82;84.49;103304.88;3570924;40;20044;-65
2021/12/16 04:45:34;;;;;;;55.78;38.03;;;;;;;9.80;84.10;103306.72;3573503;40;20045;-65
2021/12/16 04:48:03;;;;;;;56.35;38.85;;;;;;;9.76;84.13;103295.13;3572105;40;20405;-65
2021/12/16 04:50:29;;;;;;;54.58;38.80;;;;;;;9.75;84.89;103298.72;3574360;40;20355;-65
2021/12/16 04:52:55;;;;;;;57.70;39.80;;;;;;;9.75;84.75;103306.78;3573177;40;20074;-65
2021/12/16 04:55:23;;;;;;;51.38;37.75;;;;;;;9.74;84.09;103305.03;3558956;40;20064;-65
2021/12/16 04:57:50;;;;;;;50.75;37.25;;;;;;;9.73;84.24;103310.41;3573609;40;20281;-64
2021/12/16 05:00:21;;;;;;;53.60;38.13;;;;;;;9.67;83.80;103300.69;3574744;40;20061;-65
2021/12/16 05:02:49;;;;;;;51.75;37.90;;;;;;;9.02;84.06;103206.97;3573461;40;20395;-64
2021/12/16 05:05:15;;;;;;;51.15;37.70;;;;;;;9.58;84.04;103303.53;3573067;40;20049;-65
2021/12/16 05:07:43;;;;;;;57.50;39.47;;;;;;;9.56;84.05;103304.47;3574767;40;20056;-65
2021/12/16 05:10:13;;;;;;;58.65;39.92;;;;;;;9.53;84.58;103306.28;3578737;40;20052;-64
2021/12/16 05:12:47;;;;;;;50.63;38.13;;;;;;;9.49;84.44;103304.56;3572804;40;20052;-65
2021/12/16 05:15:22;;;;;;;55.75;38.17;;;;;;;9.47;85.16;103303.72;3572597;40;20052;-65
2021/12/16 05:17:51;;;;;;;54.92;38.20;;;;;;;9.44;84.92;103309.13;3572431;40;20057;-64
2021/12/16 05:20:30;;;;;;;56.47;39.15;;;;;;;9.38;84.45;103309.22;3573229;40;20057;-65
2021/12/16 05:28:17;;;;;;;50.40;37.15;;;;;;;9.20;83.93;103314.94;3571176;40;20057;-64
2021/12/16 05:30:43;;;;;;;54.50;36.30;;;;;;;8.84;84.11;103274.31;3570235;40;20065;-64
2021/12/16 05:33:10;;;;;;;59.83;39.85;;;;;;;9.01;84.54;103314.31;3573248;40;20312;-64
2021/12/16 05:35:36;;;;;;;56.97;37.85;;;;;;;8.98;84.23;103331.34;3563254;40;20326;-64
2021/12/16 05:38:03;;;;;;;54.50;37.47;;;;;;;8.93;84.57;103327.84;3569063;40;20276;-65
2021/12/16 05:40:31;;;;;;;53.03;37.72;;;;;;;8.87;84.51;103333.28;3570096;40;20049;-64
2021/12/16 05:43:05;;;;;;;50.95;37.25;;;;;;;8.81;84.03;103326.22;3571355;40;20108;-65
2021/12/16 05:45:31;;;;;;;51.17;36.63;;;;;;;8.73;84.20;103325.44;3571274;40;20052;-65
2021/12/16 05:48:01;;;;;;;49.90;37.63;;;;;;;8.66;83.98;103329.13;3571455;40;20083;-65
2021/12/16 05:50:32;;;;;;;50.65;35.90;;;;;;;8.57;83.71;103338.19;3572272;40;20118;-64
2021/12/16 05:52:58;;;;;;;55.00;36.22;;;;;;;8.53;84.17;103347.19;3572444;40;20122;-64
2021/12/16 05:55:24;;;;;;;52.00;36.30;;;;;;;8.44;84.07;103347.28;3572073;40;20125;-66
2021/12/16 05:57:51;;;;;;;49.70;35.55;;;;;;;8.39;83.77;103354.50;3573961;40;20080;-64
2021/12/16 06:00:26;;;;;;;48.03;35.20;;;;;;;8.31;83.28;103354.56;3573076;40;20338;-65
2021/12/16 06:02:52;;;;;;;45.25;32.80;;;;;;;8.21;83.91;103357.34;3571966;40;20118;-64
2021/12/16 06:05:19;;;;;;;49.80;33.47;;;;;;;8.14;83.35;103361.88;3571416;40;20068;-64
2021/12/16 06:07:45;;;;;;;51.00;35.13;;;;;;;8.05;83.21;103362.84;3574640;40;20041;-64
2021/12/16 06:10:42;;;;;;;52.65;34.78;;;;;;;7.98;83.98;103369.19;3574129;40;20130;-64
2021/12/16 06:13:02;;;;;;;49.97;34.30;;;;;;;7.90;84.04;103373.75;3573363;40;20052;-64
2021/12/16 06:15:44;;;;;;;54.25;36.72;;;;;;;7.87;84.51;103365.75;3572197;40;20061;-65
2021/12/16 06:26:30;;;;;;;46.53;35.33;;;;;;;7.56;84.10;103382.06;3573212;40;20055;-64
2021/12/16 06:28:56;;;;;;;47.72;33.90;;;;;;;7.46;83.31;103364.31;3572949;40;20677;-64
2021/12/16 06:31:22;;;;;;;49.78;35.58;;;;;;;7.44;83.56;103374.16;3559825;40;20049;-65
2021/12/16 06:33:49;;;;;;;56.00;37.75;;;;;;;7.44;83.64;103387.53;3570620;40;20053;-64
2021/12/16 06:36:15;;;;;;;52.22;35.88;;;;;;;7.24;83.76;103360.03;3572631;40;20115;-64
2021/12/16 06:38:41;;;;;;;50.92;34.85;;;;;;;7.37;83.91;103380.44;3574014;40;20057;-64
2021/12/16 06:41:07;;;;;;;53.63;33.92;;;;;;;7.28;83.86;103367.13;3572842;40;20138;-63
2021/12/16 06:43:34;;;;;;;52.08;34.40;;;;;;;7.29;83.98;103374.25;3574359;40;20057;-64
2021/12/16 06:46:03;;;;;;;52.03;34.90;;;;;;;7.30;83.24;103381.41;3568684;40;20040;-64
2021/12/16 06:48:32;;;;;;;48.33;33.53;;;;;;;7.07;83.66;103350.34;3571959;40;20128;-65
2021/12/16 06:51:04;;;;;;;48.88;34.30;;;;;;;7.21;83.89;103388.56;3572148;40;20142;-64
2021/12/16 06:53:45;;;;;;;50.50;34.25;;;;;;;7.18;83.40;103388.59;3572386;40;20377;-64
2021/12/16 06:56:18;;;;;;;45.65;32.70;;;;;;;7.13;83.48;103385.03;3557853;40;20411;-65
2021/12/16 06:58:48;;;;;;;48.05;34.35;;;;;;;7.05;82.90;103375.31;3571022;40;20048;-64
2021/12/16 07:04:07;;;;;;;46.47;33.63;;;;;;;6.97;83.22;103389.59;3570107;40;20077;-64
2021/12/16 07:06:36;;;;;;;45.03;34.08;;;;;;;6.97;83.77;103392.28;3574045;40;20061;-64
2021/12/16 07:09:13;;;;;;;50.53;33.13;;;;;;;6.76;83.73;103352.31;3574541;40;20092;-64
2021/12/16 07:11:42;;;;;;;46.40;33.42;;;;;;;6.92;82.93;103396.78;3573222;40;20373;-64
2021/12/16 07:14:14;;;;;;;48.40;33.22;;;;;;;6.88;83.81;103402.13;3572263;40;20060;-64
2021/12/16 07:16:43;;;;;;;46.40;34.00;;;;;;;6.85;83.78;103410.16;3573188;40;20057;-64
2021/12/16 07:19:10;;;;;;;47.92;33.28;;;;;;;6.78;83.24;103405.75;3574543;40;20053;-64
2021/12/16 07:21:38;;;;;;;45.15;32.45;;;;;;;6.81;82.84;103427.13;3574460;40;20366;-64
2021/12/16 07:24:10;;;;;;;45.28;32.22;;;;;;;6.74;82.82;103424.47;3571425;40;20044;-64
2021/12/16 07:26:37;;;;;;;47.53;34.23;;;;;;;6.74;83.64;103426.25;3573359;40;20135;-64
2021/12/16 07:29:05;;;;;;;49.63;33.78;;;;;;;6.71;83.32;103428.94;3574346;40;20333;-64
2021/12/16 07:31:33;;;;;;;45.20;32.63;;;;;;;6.68;83.53;103436.97;3572968;40;20056;-64
2021/12/16 07:34:00;;;;;;;49.28;34.00;;;;;;;6.66;83.38;103441.44;3573749;40;20116;-64
2021/12/16 07:36:30;;;;;;;46.35;33.35;;;;;;;6.62;83.04;103451.25;3574456;40;20064;-64
2021/12/16 07:38:56;;;;;;;46.90;33.47;;;;;;;6.61;83.33;103453.94;3572956;40;20182;-64
2021/12/16 07:41:26;;;;;;;45.85;31.85;;;;;;;6.60;83.47;103453.06;3574575;40;20053;-64
2021/12/16 07:46:21;;;;;;;46.72;33.22;;;;;;;6.59;83.50;103456.59;3574546;40;20121;-67
2021/12/16 07:48:47;;;;;;;49.00;35.25;;;;;;;6.58;82.96;103460.19;3570638;40;20375;-66
2021/12/16 07:51:13;;;;;;;56.22;38.75;;;;;;;6.38;83.92;103429.97;3574065;40;20060;-66
2021/12/16 07:53:40;;;;;;;58.90;39.47;;;;;;;6.42;84.78;103443.28;3572906;40;20387;-66
2021/12/16 07:56:08;;;;;;;59.33;39.17;;;;;;;6.66;85.70;103482.44;3573981;40;20053;-67
2021/12/16 07:58:34;;;;;;;55.78;37.50;;;;;;;6.70;84.99;103489.53;3571767;40;20056;-67
2021/12/16 08:01:01;;;;;;;56.58;37.35;;;;;;;6.72;84.89;103487.78;3572429;40;20079;-66
2021/12/16 08:03:34;;;;;;;52.78;36.35;;;;;;;6.74;84.51;103493.97;3572609;40;20147;-66
2021/12/16 08:06:09;;;;;;;56.63;37.80;;;;;;;6.42;84.13;103445.09;3574698;40;20048;-66
2021/12/16 08:08:37;;;;;;;49.30;33.95;;;;;;;6.73;83.80;103502.03;3573453;40;20072;-66
2021/12/16 08:11:05;;;;;;;49.33;33.72;;;;;;;6.74;83.81;103498.44;3571560;40;20052;-66
2021/12/16 08:13:31;;;;;;;50.33;34.05;;;;;;;6.72;83.19;103500.22;3573157;40;20057;-66
2021/12/16 08:15:56;;;;;;;45.42;32.65;;;;;;;6.72;83.32;103506.47;3572269;40;20064;-66
2021/12/16 08:18:22;;;;;;;51.55;34.70;;;;;;;6.73;83.07;103516.28;3570110;40;20469;-66
2021/12/16 08:20:48;;;;;;;47.00;32.58;;;;;;;6.73;82.87;103507.38;3571140;40;20055;-66
2021/12/16 08:23:13;;;;;;;48.35;34.05;;;;;;;6.77;82.98;103513.59;3573393;40;20410;-66
2021/12/16 08:25:39;;;;;;;49.92;34.25;;;;;;;6.77;82.72;103525.16;3570107;40;20391;-66
2021/12/16 08:28:06;;;;;;;55.33;35.03;;;;;;;6.76;82.97;103523.41;3571198;40;20126;-66
2021/12/16 08:30:39;;;;;;;53.75;35.47;;;;;;;6.77;83.36;103524.28;3576756;40;20091;-66
2021/12/16 08:33:09;;;;;;;48.83;33.85;;;;;;;6.78;83.47;103526.94;3572209;40;20146;-66
2021/12/16 08:35:37;;;;;;;52.33;34.38;;;;;;;6.78;83.04;103536.75;3572631;40;20064;-66
2021/12/16 08:38:04;;;;;;;52.95;33.88;;;;;;;6.58;82.86;103502.94;3573192;40;20077;-66
2021/12/16 08:40:30;;;;;;;67.07;37.15;;;;;;;6.78;82.68;103537.63;3559134;40;20052;-66
2021/12/16 08:42:56;;;;;;;83.22;41.45;;;;;;;6.80;83.87;103535.84;3575537;40;20072;-66
2021/12/16 08:45:29;;;;;;;89.32;43.30;;;;;;;6.81;83.43;103537.63;3573784;40;20083;-66
2021/12/16 08:47:58;;;;;;;92.38;44.60;;;;;;;6.82;83.80;103538.50;3563200;40;20063;-67
2021/12/16 08:50:33;;;;;;;88.68;44.13;;;;;;;6.86;83.61;103534.97;3574257;40;20064;-67
2021/12/16 08:53:00;;;;;;;93.88;45.13;;;;;;;6.87;84.11;103537.59;3566287;40;20122;-66
2021/12/16 08:55:30;;;;;;;86.07;44.55;;;;;;;6.92;84.26;103542.97;3572331;40;20073;-66
2021/12/16 08:57:57;;;;;;;86.45;43.55;;;;;;;6.91;84.38;103544.75;3572149;40;20052;-66
2021/12/16 09:00:35;;;;;;;78.72;43.05;;;;;;;6.99;84.01;103550.06;3574400;40;20388;-66
2021/12/16 09:03:02;;;;;;;76.05;42.47;;;;;;;7.03;84.75;103567.00;3572131;40;20053;-66
2021/12/16 09:05:28;;;;;;;79.45;40.92;;;;;;;6.78;84.26;103520.72;3573196;40;20097;-67
2021/12/16 09:07:55;;;;;;;65.32;39.83;;;;;;;7.02;84.79;103552.72;3570383;40;20054;-66
2021/12/16 09:10:29;;;;;;;70.53;40.90;;;;;;;7.06;84.89;103557.16;3573073;40;20037;-67
2021/12/16 09:13:04;;;;;;;69.15;39.83;;;;;;;7.19;83.96;103572.28;3571552;40;20065;-66
2021/12/16 09:15:44;;;;;;;71.82;38.25;;;;;;;7.25;84.60;103570.47;3573421;40;20138;-66
2021/12/16 09:18:12;;;;;;;62.10;37.55;;;;;;;7.25;83.99;103554.44;3571963;40;20056;-66
2021/12/16 09:20:39;;;;;;;60.92;36.75;;;;;;;7.36;84.23;103561.53;3569201;40;20083;-67
2021/12/16 09:23:09;;;;;;;60.47;37.00;;;;;;;7.44;84.72;103574.84;3574665;40;20092;-67
2021/12/16 09:25:36;;;;;;;53.78;37.22;;;;;;;7.52;84.38;103575.72;3573313;40;20084;-67
2021/12/16 09:28:02;;;;;;;50.72;33.88;;;;;;;7.59;84.15;103569.44;3569889;40;20060;-66
2021/12/16 09:30:30;;;;;;;59.05;37.50;;;;;;;7.69;84.90;103564.91;3573342;40;20438;-67
2021/12/16 09:32:58;;;;;;;62.25;39.13;;;;;;;7.84;85.09;103571.97;3572956;40;20126;-67
2021/12/16 09:35:27;;;;;;;55.90;38.53;;;;;;;7.93;85.38;103571.91;3573409;40;20059;-67
2021/12/16 09:37:55;;;;;;;53.60;37.35;;;;;;;8.01;84.58;103572.75;3611467;22;20107;-65
2021/12/16 09:40:26;;;;;;;51.67;35.55;;;;;;;8.12;84.43;103578.91;3577179;40;20076;-64
2021/12/16 09:42:53;;;;;;;52.67;36.60;;;;;;;8.20;83.87;103580.66;3582598;40;20064;-66
2021/12/16 09:45:21;;;;;;;48.72;35.50;;;;;;;8.30;84.33;103577.00;3577661;40;20052;-64
2021/12/16 09:47:48;;;;;;;48.65;35.03;;;;;;;8.42;84.41;103581.41;3578802;40;20056;-66
2021/12/16 09:50:26;;;;;;;57.70;37.92;;;;;;;8.56;84.56;103579.47;3577886;40;20126;-64
2021/12/16 09:52:53;;;;;;;57.20;40.10;;;;;;;8.72;85.19;103585.56;3577034;40;20064;-65
2021/12/16 09:55:21;;;;;;;50.22;37.95;;;;;;;8.89;84.58;103572.03;3576672;40;20100;-64
2021/12/16 09:57:48;;;;;;;46.17;34.92;;;;;;;8.83;83.25;103536.28;3576663;40;20048;-65
2021/12/16 10:00:22;;;;;;;47.63;36.00;;;;;;;9.24;83.38;103580.53;3578697;40;20052;-64
2021/12/16 10:02:50;;;;;;;44.85;33.72;;;;;;;9.39;83.08;103567.84;3579283;40;20370;-66
2021/12/16 10:05:16;;;;;;;45.63;35.08;;;;;;;9.61;83.32;103580.09;3577898;40;20540;-64
2021/12/16 10:07:42;;;;;;;44.88;33.95;;;;;;;9.81;82.45;103579.81;3578731;40;20987;-66
2021/12/16 10:10:18;;;;;;;48.70;34.80;;;;;;;9.98;81.87;103564.31;3580817;40;20068;-65
2021/12/16 10:12:47;;;;;;;39.63;33.13;;;;;;;10.26;81.03;103574.66;3578240;40;20036;-65
2021/12/16 10:18:17;;;;;;;37.50;29.60;;;;;;;10.82;78.65;103572.78;3577321;40;20060;-65
2021/12/16 10:20:52;;;;;;;37.17;30.30;;;;;;;11.09;79.15;103570.47;3576144;40;20299;-63
2021/12/16 10:23:32;;;;;;;37.10;28.38;;;;;;;11.36;77.72;103577.97;3577736;40;20153;-64
2021/12/16 10:26:13;;;;;;;34.58;28.10;;;;;;;11.60;76.38;103586.44;3579486;40;20060;-64
2021/12/16 10:28:47;;;;;;;36.92;28.10;;;;;;;11.81;76.53;103577.88;3580302;40;20051;-65
2021/12/16 10:31:24;;;;;;;34.22;27.80;;;;;;;12.03;76.03;103586.41;3580616;40;20049;-65
2021/12/16 10:33:57;;;;;;;35.72;26.50;;;;;;;12.19;75.19;103573.44;3577614;40;20161;-64
2021/12/16 10:36:45;;;;;;;32.97;26.33;;;;;;;12.35;75.17;103586.53;3576546;40;20045;-65
2021/12/16 10:39:22;;;;;;;29.98;24.42;;;;;;;12.63;74.24;103584.03;3577442;40;20068;-64
2021/12/16 10:41:54;;;;;;;33.17;24.05;;;;;;;12.93;73.44;103580.47;3578073;40;20045;-67
2021/12/16 10:44:27;;;;;;;33.85;22.50;;;;;;;13.03;72.95;103570.31;3579118;40;20048;-65
2021/12/16 10:47:10;;;;;;;30.05;22.48;;;;;;;13.11;72.69;103579.09;3577907;40;20139;-64
2021/12/16 10:49:42;;;;;;;27.50;21.80;;;;;;;13.22;72.41;103576.06;3576308;40;20048;-65
2021/12/16 10:52:14;;;;;;;29.15;20.80;;;;;;;13.50;71.36;103573.47;3577763;40;20322;-64
2021/12/16 10:54:47;;;;;;;29.67;20.02;;;;;;;13.81;69.82;103578.81;3577932;40;20288;-65
2021/12/16 10:57:17;;;;;;;26.20;19.55;;;;;;;13.80;68.83;103552.72;3577583;40;20086;-67
2021/12/16 10:59:49;;;;;;;27.02;19.90;;;;;;;13.77;69.23;103571.75;3578253;40;20057;-66
2021/12/16 11:02:30;;;;;;;27.65;19.98;;;;;;;13.63;69.27;103577.56;3577580;40;20123;-65
2021/12/16 11:05:21;;;;;;;28.92;19.45;;;;;;;13.56;69.35;103589.50;3580519;40;20064;-64
2021/12/16 11:07:55;;;;;;;27.65;20.38;;;;;;;13.59;69.95;103584.00;3578412;40;20048;-65
2021/12/16 11:10:28;;;;;;;28.30;19.70;;;;;;;13.79;69.75;103575.28;3579204;40;20092;-63
2021/12/16 11:13:01;;;;;;;26.58;19.88;;;;;;;14.04;68.55;103588.91;3578704;40;20067;-64
2021/12/16 11:15:53;;;;;;;23.13;17.23;;;;;;;14.19;67.72;103565.00;3581147;40;20045;-65
2021/12/16 11:18:28;;;;;;;26.23;18.08;;;;;;;13.83;67.47;103517.47;3578674;40;20049;-64
2021/12/16 11:21:09;;;;;;;20.83;15.95;;;;;;;14.42;66.38;103584.03;3582686;40;20076;-64
2021/12/16 11:23:40;;;;;;;24.13;16.15;;;;;;;14.56;65.30;103589.91;3581077;40;20393;-64
2021/12/16 11:26:18;;;;;;;20.27;16.00;;;;;;;14.73;64.97;103588.44;3579540;40;20065;-64
2021/12/16 11:28:54;;;;;;;23.30;16.65;;;;;;;14.79;63.71;103547.59;3580943;40;20048;-64
2021/12/16 11:31:29;;;;;;;21.35;16.02;;;;;;;15.13;63.25;103582.47;3579780;40;20125;-63
2021/12/16 11:34:04;;;;;;;23.13;15.98;;;;;;;14.85;63.43;103577.19;3578552;40;20126;-65
2021/12/16 11:36:46;;;;;;;26.40;16.45;;;;;;;14.61;63.80;103585.22;3578163;40;20048;-62
2021/12/16 11:39:17;;;;;;;24.77;18.30;;;;;;;14.44;65.41;103584.00;3578871;40;20052;-65
2021/12/16 11:41:53;;;;;;;27.05;18.60;;;;;;;14.26;64.89;103544.91;3579634;40;20056;-64
2021/12/16 11:44:32;;;;;;;22.73;16.13;;;;;;;14.41;65.20;103582.28;3578709;40;20052;-64
2021/12/16 11:47:31;;;;;;;25.00;16.25;;;;;;;14.46;64.24;103580.31;3581606;40;20052;-64
2021/12/16 11:50:06;;;;;;;21.05;15.55;;;;;;;14.65;63.96;103568.84;3577522;40;20067;-65
2021/12/16 11:52:39;;;;;;;23.90;15.98;;;;;;;14.98;64.07;103570.38;3580680;40;20103;-64
2021/12/16 11:55:15;;;;;;;24.92;15.25;;;;;;;15.30;63.70;103563.75;3579124;40;20049;-65
2021/12/16 11:57:51;;;;;;;21.48;14.85;;;;;;;15.64;61.77;103569.72;3576018;40;20358;-65
2021/12/16 12:00:29;;;;;;;17.80;13.60;;;;;;;15.86;60.72;103567.03;3576877;40;20044;-65
2021/12/16 12:03:08;;;;;;;18.80;12.48;;;;;;;15.87;59.84;103569.69;3581719;40;20064;-64
2021/12/16 12:05:47;;;;;;;20.02;12.55;;;;;;;15.71;61.07;103568.53;3578731;40;20060;-64
2021/12/16 12:08:26;;;;;;;21.10;13.35;;;;;;;15.51;61.56;103570.19;3567325;40;20060;-65
2021/12/16 12:11:24;;;;;;;19.73;12.98;;;;;;;15.33;61.74;103568.19;3580711;40;20123;-64
2021/12/16 12:14:02;;;;;;;21.08;13.55;;;;;;;15.17;61.88;103572.41;3581060;40;20064;-64
2021/12/16 12:16:38;;;;;;;21.02;13.43;;;;;;;15.01;62.54;103567.56;3576255;40;20052;-63
2021/12/16 12:19:23;;;;;;;18.65;12.90;;;;;;;14.90;62.50;103564.34;3577198;40;20052;-65
2021/12/16 12:22:01;;;;;;;26.58;15.50;;;;;;;14.80;63.51;103566.50;3570292;40;20678;-65
2021/12/16 12:24:44;;;;;;;34.80;17.13;;;;;;;14.89;63.36;103562.59;3581816;40;20064;-65
2021/12/16 12:27:12;;;;;;;20.45;13.48;;;;;;;14.91;63.07;103570.66;3576305;40;20127;-64
2021/12/16 12:29:48;;;;;;;18.90;12.73;;;;;;;14.76;63.52;103561.25;3578020;40;20117;-64
2021/12/16 12:32:26;;;;;;;20.63;14.40;;;;;;;14.71;63.64;103560.53;3578580;40;20056;-64
2021/12/16 12:35:07;;;;;;;21.05;13.00;;;;;;;14.71;63.69;103561.41;3581449;40;20068;-66
2021/12/16 12:37:37;;;;;;;20.08;13.32;;;;;;;14.65;63.53;103553.50;3570731;40;20134;-63
2021/12/16 12:40:20;;;;;;;21.70;13.38;;;;;;;14.71;63.07;103552.41;3576660;40;20049;-64
2021/12/16 12:42:49;;;;;;;20.67;13.50;;;;;;;14.71;63.60;103557.81;3579870;40;20040;-65
2021/12/16 12:45:30;;;;;;;23.65;14.30;;;;;;;14.85;63.43;103560.94;3578782;40;20442;-64
2021/12/16 12:48:01;;;;;;;20.80;13.15;;;;;;;14.75;62.68;103559.50;3577667;40;20059;-65
2021/12/16 12:50:36;;;;;;;18.98;12.57;;;;;;;14.66;63.68;103565.25;3578252;40;20049;-65
2021/12/16 12:53:24;;;;;;;19.50;11.82;;;;;;;14.94;62.42;103560.59;3577928;40;20056;-64
2021/12/16 12:55:56;;;;;;;19.40;12.60;;;;;;;15.40;61.44;103564.28;3575706;40;20059;-65
2021/12/16 12:58:29;;;;;;;18.83;12.63;;;;;;;15.67;60.35;103564.19;3577513;40;20063;-65
2021/12/16 13:01:02;;;;;;;20.02;11.75;;;;;;;15.97;59.27;103560.22;3578646;40;20264;-64
2021/12/16 13:03:35;;;;;;;16.35;12.80;;;;;;;16.18;58.67;103552.16;3578783;40;20295;-64
2021/12/16 13:06:13;;;;;;;25.27;13.70;;;;;;;16.32;58.31;103546.13;3577533;40;20050;-65
2021/12/16 13:08:47;;;;;;;18.33;12.57;;;;;;;16.52;57.49;103548.00;3576433;40;20054;-64
2021/12/16 13:11:20;;;;;;;;;;;;;;;16.54;56.89;103554.25;3580054;40;20049;-65
2021/12/16 13:14:20;;;;;;;37.15;17.92;;;;;;;16.68;56.62;103540.94;3578218;40;19940;-63
2021/12/16 13:31:06;;;;;;;13.38;8.05;;;;;;;17.07;52.61;103553.72;3578753;40;20330;-64
2021/12/16 13:33:53;;;;;;;12.32;7.93;;;;;;;16.98;51.83;103546.88;3580507;40;20122;-65
2021/12/16 13:36:39;;;;;;;14.93;8.13;;;;;;;16.94;51.87;103547.97;3580536;40;20075;-65
2021/12/16 13:39:12;;;;;;;17.17;8.63;;;;;;;16.90;52.20;103551.75;3579564;40;20075;-64
2021/12/16 13:41:59;;;;;;;10.50;7.30;;;;;;;16.85;51.57;103559.25;3579025;40;20052;-64
2021/12/16 13:44:46;;;;;;;10.60;7.63;;;;;;;16.87;51.54;103552.81;3576576;40;20053;-65
2021/12/16 13:47:38;;;;;;;12.85;8.10;;;;;;;16.87;51.76;103549.16;3580335;40;20086;-63
2021/12/16 14:10:20;;;;;;;15.07;8.40;;;;;;;16.19;53.79;103553.91;3579267;40;20067;-64
2021/12/16 14:16:38;;;;;;;11.93;7.97;;;;;;;16.09;54.21;103558.84;3573582;40;20391;-63
2021/12/16 14:39:08;;;;;;;13.27;8.60;;;;;;;13.63;61.60;103577.56;3578705;40;20063;-65
2021/12/16 14:42:02;;;;;;;15.48;8.98;;;;;;;13.22;62.89;103559.84;3579374;40;20065;-64
2021/12/16 14:49:51;;;;;;;14.50;9.23;;;;;;;12.93;64.41;103593.09;3580826;40;20045;-66
2021/12/16 14:52:26;;;;;;;15.23;9.18;;;;;;;12.78;64.60;103592.59;3577509;40;20049;-64
2021/12/16 14:55:01;;;;;;;10.80;8.68;;;;;;;12.67;65.48;103589.28;3579646;40;20058;-66
2021/12/16 14:57:53;;;;;;;16.23;9.32;;;;;;;12.55;66.38;103595.00;3581194;40;20055;-65
2021/12/16 15:00:32;;;;;;;14.77;9.30;;;;;;;12.42;66.44;103585.44;3578283;40;20057;-64
2021/12/16 15:03:08;;;;;;;15.55;9.07;;;;;;;12.30;66.82;103589.34;3580885;40;20052;-64
2021/12/16 15:05:53;;;;;;;15.90;10.07;;;;;;;12.19;67.31;103599.50;3581035;40;20060;-64